Powell, WY (82435)

01:39 AM MST die 01o February, anno 2015 (GMT -0700)
APRSWXNET Powell WY US | Change Station
CLOSE
Current Station
Personal Weather Stations
Location: Garland, WY
Elevation: 4504 ft
Nearby Weather Stations

Elev 4504 ft 44.75 °N, 108.82 °W | Updated 41 minutes ago

Partialiter Nubila
Partialiter Nubila
15 °F
Feels Like 1 °F
N
12
Ventus Variabilis Ventus from Inter Aquilonem et Zephyrus
Gusts 16.0 mph

Hodie
High -- | Low -- °F
--% Chance of Precip.
Yesterday
High -- | Low -- °F
Precip. -- in
7:34 AM 5:23 PM
Waxing Gibbous, 94% visible
Pressio 30.16 in
Visibilitas 10.0 milia passuum
Clouds Aequaliter Nubila 800 ft
Frigus Venti 1 °F
Frigus in quo Ros apparet 4 °F
Umor 61%
Rainfall 0.00 in
Snow Depth Not available.
UV 0 out of 12
Pollen .10 out of 12
Air Quality Not available.
Flu Activity Not available.
METAR KCOD 010835Z 01010KT 10SM OVC008 M11/M11 A3016 RMK AO1

More Conditions Fewer Conditions

Pressio 30.16 in
Visibilitas 10.0 milia passuum
Clouds Aequaliter Nubila 800 ft
Frigus Venti 1 °F
Frigus in quo Ros apparet 4 °F
Umor 61%
Rainfall 0.00 in
Snow Depth Not available.
UV 0 out of 12
Pollen .10 out of 12
Air Quality Not available.
Flu Activity Not available.
METAR KCOD 010835Z 01010KT 10SM OVC008 M11/M11 A3016 RMK AO1

More Conditions Fewer Conditions

10-Day Weather Forecast

Almanac

Astronomy

Feb. 01, 2015 Rise Set
Actual Time
Civil Twilight
Nautical Twilight
Astronomical Twilight
Moon
Length Of Visible Light
Length of Day
Tomorrow will be .
, % of the Moon is Illuminated

Today's Extremes

State Highs State Lows

Community

WunderPhotos

Upload Photos

1,792,335 photos uploaded!

WunderBlogs® & News

Nearby

Air Quality

  Air Quality AQ Index Pollutant
Not available.

Snow Depth

Station Depth Elevation

Earthquake Activity

City Distance Mag. Time & Date
Minimum magnitude displayed is 2.5.

Coastal Water Temperatures

Locus Calor

Nearby Weather Stations